createdAt,value
2022-10-15T00:00:23.888Z,94.23
2022-10-15T00:03:26.112Z,94.68
2022-10-15T00:06:28.331Z,93.77
2022-10-15T00:09:30.493Z,95.05
2022-10-15T00:12:33.087Z,95.97
2022-10-15T00:15:37.600Z,95.19
2022-10-15T00:18:40.872Z,95.11
2022-10-15T00:21:43.071Z,95.24
2022-10-15T00:24:45.249Z,95.07
2022-10-15T00:27:47.419Z,94.69
2022-10-15T00:30:49.577Z,94.02
2022-10-15T00:33:53.750Z,94.79
2022-10-15T00:36:57.710Z,94.94
2022-10-15T00:40:00.082Z,95.41
2022-10-15T00:43:02.358Z,95.06
2022-10-15T00:46:05.306Z,94.75
2022-10-15T00:49:14.433Z,94.60
2022-10-15T00:52:22.848Z,94.21
2022-10-15T00:55:35.019Z,94.46
2022-10-15T00:58:37.326Z,94.58
2022-10-15T01:01:40.567Z,94.14
2022-10-15T01:04:42.785Z,94.58
2022-10-15T01:07:45.169Z,94.90
2022-10-15T01:11:14.376Z,93.93
2022-10-15T01:14:20.153Z,93.83
2022-10-15T01:17:30.789Z,94.19
2022-10-15T01:20:41.998Z,94.65
2022-10-15T01:24:25.964Z,94.74
2022-10-15T01:27:36.289Z,95.33
2022-10-15T01:30:54.051Z,95.30
2022-10-15T01:34:03.236Z,94.98
2022-10-15T01:37:19.310Z,95.03
2022-10-15T01:40:36.652Z,94.71
2022-10-15T01:44:19.120Z,95.38
2022-10-15T01:47:52.588Z,95.85
2022-10-15T01:50:59.825Z,96.10
2022-10-15T01:54:05.527Z,95.88
2022-10-15T01:57:11.133Z,95.48
2022-10-15T02:00:15.209Z,95.18
2022-10-15T02:03:17.519Z,94.81
2022-10-15T02:06:29.043Z,95.54
2022-10-15T02:09:52.507Z,95.48
2022-10-15T02:13:16.567Z,95.46
2022-10-15T02:16:46.613Z,96.32
2022-10-15T02:20:05.760Z,96.50
2022-10-15T02:23:20.083Z,96.59
2022-10-15T02:26:26.109Z,96.14
2022-10-15T02:29:33.153Z,95.78
2022-10-15T02:32:39.875Z,95.64
2022-10-15T02:35:43.667Z,95.71
2022-10-15T02:38:47.995Z,95.17
2022-10-15T02:41:53.363Z,94.91
2022-10-15T02:44:55.577Z,94.92
2022-10-15T02:47:57.873Z,95.33
2022-10-15T02:51:00.074Z,95.73
2022-10-15T02:54:04.580Z,95.66
2022-10-15T02:57:06.766Z,95.82
2022-10-15T03:00:09.751Z,95.97
2022-10-15T03:03:14.027Z,96.10
2022-10-15T03:06:22.976Z,96.14
2022-10-15T03:09:25.177Z,95.93
2022-10-15T03:12:27.552Z,96.22
2022-10-15T03:15:29.983Z,96.14
2022-10-15T03:18:36.745Z,95.58
2022-10-15T03:21:42.080Z,95.79
2022-10-15T03:24:47.925Z,96.35
2022-10-15T03:27:54.482Z,96.27
2022-10-15T03:31:02.747Z,96.33
2022-10-15T03:34:05.396Z,96.20
2022-10-15T03:37:08.246Z,96.28
2022-10-15T03:40:15.030Z,96.21
2022-10-15T03:43:19.084Z,96.27
2022-10-15T03:46:21.943Z,96.32
2022-10-15T03:49:25.273Z,96.23
2022-10-15T03:52:28.235Z,96.22
2022-10-15T03:55:30.682Z,96.22
2022-10-15T03:58:33.750Z,96.23
2022-10-15T04:01:39.431Z,96.38
2022-10-15T04:04:42.642Z,96.60
2022-10-15T04:07:44.901Z,96.72
2022-10-15T04:10:53.124Z,96.40
2022-10-15T04:13:55.479Z,96.76
2022-10-15T04:16:59.073Z,96.45
2022-10-15T04:20:02.919Z,96.41
2022-10-15T04:23:05.112Z,95.98
2022-10-15T04:26:07.452Z,96.02
2022-10-15T04:29:09.704Z,95.49
2022-10-15T04:32:15.457Z,95.28
2022-10-15T04:35:18.503Z,95.64
2022-10-15T04:38:39.381Z,95.69
2022-10-15T04:41:42.985Z,96.22
2022-10-15T04:44:50.286Z,96.40
2022-10-15T04:47:52.612Z,96.49
2022-10-15T04:51:14.533Z,96.74
2022-10-15T04:54:36.932Z,96.77
2022-10-15T04:57:40.074Z,96.66
2022-10-15T05:00:42.677Z,96.57
2022-10-15T05:04:03.580Z,96.79
2022-10-15T05:07:08.741Z,96.78
2022-10-15T05:10:15.201Z,96.64
2022-10-15T05:13:17.459Z,96.77
2022-10-15T05:16:22.778Z,96.67
2022-10-15T05:19:25.436Z,96.45
2022-10-15T05:22:27.728Z,96.21
2022-10-15T05:25:35.955Z,95.82
2022-10-15T05:28:39.317Z,94.94
2022-10-15T05:31:41.700Z,94.12
2022-10-15T05:34:52.552Z,92.85
2022-10-15T05:37:54.994Z,91.60
2022-10-15T05:40:58.566Z,90.11
2022-10-15T05:44:01.955Z,88.68
2022-10-15T05:47:06.811Z,88.33
2022-10-15T05:50:11.772Z,88.31
2022-10-15T05:53:19.059Z,87.59
2022-10-15T05:56:23.676Z,86.84
2022-10-15T05:59:25.835Z,86.95
2022-10-15T06:02:28.425Z,84.84
2022-10-15T06:05:31.931Z,83.65
2022-10-15T06:08:34.179Z,82.98
2022-10-15T06:11:36.656Z,82.73
2022-10-15T06:14:38.820Z,82.87
2022-10-15T06:17:42.288Z,84.33
2022-10-15T06:20:44.825Z,86.75
2022-10-15T06:23:47.108Z,87.45
2022-10-15T06:26:49.273Z,86.71
2022-10-15T06:29:51.628Z,85.56
2022-10-15T06:32:54.103Z,85.26
2022-10-15T06:36:00.213Z,82.80
2022-10-15T06:39:02.529Z,80.34
2022-10-15T06:42:04.671Z,78.80
2022-10-15T06:45:19.391Z,77.22
2022-10-15T06:48:23.880Z,75.90
2022-10-15T06:51:26.103Z,74.93
2022-10-15T06:54:28.303Z,73.17
2022-10-15T06:57:31.050Z,72.07
2022-10-15T07:03:38.972Z,69.70
2022-10-15T07:06:42.298Z,69.20
2022-10-15T07:09:46.766Z,66.99
2022-10-15T07:12:48.991Z,67.88
2022-10-15T07:15:54.043Z,66.93
2022-10-15T07:18:56.642Z,65.16
2022-10-15T07:21:58.826Z,64.47
2022-10-15T07:25:00.959Z,66.86
2022-10-15T07:28:03.231Z,69.21
2022-10-15T07:31:07.754Z,70.79
2022-10-15T07:34:10.021Z,72.03
2022-10-15T07:37:14.187Z,73.73
2022-10-15T07:40:17.507Z,74.04
2022-10-15T07:43:20.122Z,74.32
2022-10-15T07:46:22.465Z,74.93
2022-10-15T07:49:36.679Z,73.02
2022-10-15T07:52:38.859Z,74.29
2022-10-15T07:55:41.038Z,74.06
2022-10-15T07:58:43.561Z,74.17
2022-10-15T08:01:50.662Z,73.56
2022-10-15T08:04:53.032Z,74.23
2022-10-15T08:07:55.279Z,73.24
2022-10-15T08:10:57.962Z,73.43
2022-10-15T08:14:00.249Z,73.20
2022-10-15T08:17:04.132Z,72.49
2022-10-15T08:20:06.744Z,71.74
2022-10-15T08:23:15.627Z,71.91
2022-10-15T08:26:18.001Z,70.79
2022-10-15T08:29:20.189Z,69.43
2022-10-15T08:32:22.609Z,66.97
2022-10-15T08:35:24.994Z,64.71
2022-10-15T08:38:27.341Z,61.43
2022-10-15T08:41:35.726Z,64.24
2022-10-15T08:44:52.097Z,65.77
2022-10-15T08:48:04.862Z,66.88
2022-10-15T08:51:20.115Z,66.76
2022-10-15T08:54:22.485Z,65.93
2022-10-15T08:57:24.927Z,64.28
2022-10-15T09:00:38.679Z,61.35
2022-10-15T09:04:14.978Z,60.94
2022-10-15T09:07:29.403Z,62.55
2022-10-15T09:10:49.519Z,65.08
2022-10-15T09:13:52.156Z,65.41
2022-10-15T09:17:05.579Z,64.19
2022-10-15T09:20:23.317Z,63.16
2022-10-15T09:23:32.240Z,63.07
2022-10-15T09:26:56.015Z,64.55
2022-10-15T09:30:23.279Z,63.29
2022-10-15T09:33:35.102Z,63.20
2022-10-15T09:36:47.189Z,63.14
2022-10-15T09:40:36.372Z,62.29
2022-10-15T09:43:40.974Z,62.12
2022-10-15T09:46:45.003Z,61.39
2022-10-15T09:49:47.199Z,61.35
2022-10-15T09:53:18.922Z,61.31
2022-10-15T09:56:36.914Z,61.97
2022-10-15T09:59:51.731Z,62.16
2022-10-15T10:03:15.614Z,61.43
2022-10-15T10:06:17.851Z,61.45
2022-10-15T10:09:31.731Z,60.90
2022-10-15T10:12:36.289Z,59.97
2022-10-15T10:15:42.059Z,59.17
2022-10-15T10:18:50.955Z,58.88
2022-10-15T10:22:10.786Z,60.11
2022-10-15T10:25:31.512Z,58.74
2022-10-15T10:28:56.643Z,59.01
2022-10-15T10:32:33.066Z,58.11
2022-10-15T10:35:50.550Z,58.68
2022-10-15T10:39:26.324Z,59.27
2022-10-15T10:42:33.726Z,57.96
2022-10-15T10:45:38.850Z,54.80
2022-10-15T10:48:44.259Z,53.12
2022-10-15T10:51:49.860Z,50.86
2022-10-15T10:54:59.637Z,49.12
2022-10-15T10:58:02.707Z,47.67
2022-10-15T11:01:05.129Z,48.10
2022-10-15T11:04:16.991Z,47.30
2022-10-15T11:07:54.319Z,46.28
2022-10-15T11:11:10.335Z,44.90
2022-10-15T11:14:33.945Z,42.65
2022-10-15T11:17:48.013Z,40.16
2022-10-15T11:21:38.034Z,38.99
2022-10-15T11:25:07.170Z,41.88
2022-10-15T11:28:35.780Z,44.76
2022-10-15T11:32:02.750Z,44.29
2022-10-15T11:35:51.683Z,42.78
2022-10-15T11:39:16.584Z,39.09
2022-10-15T11:42:28.555Z,37.57
2022-10-15T11:45:35.183Z,39.82
2022-10-15T11:48:49.353Z,41.49
2022-10-15T11:52:26.297Z,37.11
2022-10-15T11:55:44.983Z,37.37
2022-10-15T11:58:55.786Z,39.73
2022-10-15T12:02:33.339Z,39.43
2022-10-15T12:05:40.176Z,42.04
2022-10-15T12:08:44.107Z,42.61
2022-10-15T12:11:56.936Z,44.48
2022-10-15T12:15:14.289Z,46.37
2022-10-15T12:18:34.863Z,48.22
2022-10-15T12:21:44.328Z,48.75
2022-10-15T12:24:50.044Z,47.08
2022-10-15T12:28:05.071Z,46.26
2022-10-15T12:31:07.307Z,47.35
2022-10-15T12:34:39.795Z,47.82
2022-10-15T12:37:44.638Z,48.74
2022-10-15T12:40:47.588Z,48.89
2022-10-15T12:44:08.894Z,48.77
2022-10-15T12:47:11.384Z,49.18
2022-10-15T12:50:25.170Z,49.78
2022-10-15T12:53:33.216Z,49.46
2022-10-15T12:56:43.054Z,51.14
2022-10-15T12:59:45.184Z,49.66
2022-10-15T13:02:48.067Z,49.46
2022-10-15T13:05:54.213Z,49.03
2022-10-15T13:09:11.030Z,49.18
2022-10-15T13:12:23.247Z,48.14
2022-10-15T13:15:28.087Z,47.86
2022-10-15T13:18:31.639Z,46.40
2022-10-15T13:21:54.040Z,46.20
2022-10-15T13:24:56.820Z,46.95
2022-10-15T13:27:59.039Z,47.57
2022-10-15T13:31:05.555Z,47.09
2022-10-15T13:34:16.257Z,46.51
2022-10-15T13:37:30.116Z,47.17
2022-10-15T13:40:32.790Z,46.85
2022-10-15T13:43:35.004Z,47.40
2022-10-15T13:46:43.907Z,47.92
2022-10-15T13:49:46.111Z,48.77
2022-10-15T13:53:29.394Z,50.49
2022-10-15T13:56:32.902Z,49.55
2022-10-15T13:59:35.207Z,48.96
2022-10-15T14:02:37.371Z,50.45
2022-10-15T14:05:41.969Z,50.38
2022-10-15T14:08:44.696Z,50.01
2022-10-15T14:11:47.189Z,49.96
2022-10-15T14:14:49.488Z,50.28
2022-10-15T14:17:52.019Z,51.78
2022-10-15T14:20:54.648Z,50.37
2022-10-15T14:24:06.295Z,50.75
2022-10-15T14:27:15.694Z,51.48
2022-10-15T14:30:28.278Z,51.82
2022-10-15T14:33:40.769Z,51.77
2022-10-15T14:36:43.347Z,52.60
2022-10-15T14:39:48.239Z,52.96
2022-10-15T14:42:56.695Z,52.72
2022-10-15T14:46:02.119Z,53.34
2022-10-15T14:49:16.306Z,53.50
2022-10-15T14:52:20.611Z,54.47
2022-10-15T14:55:31.576Z,54.75
2022-10-15T14:58:34.148Z,54.02
2022-10-15T15:01:36.375Z,54.98
2022-10-15T15:04:42.063Z,55.58
2022-10-15T15:07:44.327Z,56.06
2022-10-15T15:13:51.830Z,55.83
2022-10-15T15:16:54.840Z,56.65
2022-10-15T15:19:57.905Z,57.19
2022-10-15T15:23:00.228Z,57.66
2022-10-15T15:26:02.850Z,58.80
2022-10-15T15:29:13.764Z,58.80
2022-10-15T15:32:16.531Z,58.67
2022-10-15T15:35:22.395Z,59.32
2022-10-15T15:38:31.344Z,59.81
2022-10-15T15:41:33.950Z,59.91
2022-10-15T15:44:36.175Z,59.83
2022-10-15T15:47:38.342Z,60.73
2022-10-15T15:50:40.713Z,60.75
2022-10-15T15:53:43.002Z,61.37
2022-10-15T15:56:45.176Z,60.88
2022-10-15T15:59:47.379Z,61.64
2022-10-15T16:02:51.895Z,62.43
2022-10-15T16:05:55.220Z,62.28
2022-10-15T16:08:59.516Z,62.72
2022-10-15T16:12:01.928Z,63.59
2022-10-15T16:15:06.213Z,63.77
2022-10-15T16:18:10.780Z,64.02
2022-10-15T16:21:12.956Z,64.26
2022-10-15T16:24:15.151Z,64.42
2022-10-15T16:27:17.373Z,64.70
2022-10-15T16:30:19.586Z,64.54
2022-10-15T16:33:21.765Z,64.80
2022-10-15T16:36:23.985Z,64.84
2022-10-15T16:39:26.235Z,64.96
2022-10-15T16:42:28.417Z,65.07
2022-10-15T16:45:30.588Z,65.32
2022-10-15T16:48:34.110Z,65.52
2022-10-15T16:51:38.595Z,65.96
2022-10-15T16:54:43.475Z,66.41
2022-10-15T16:57:45.636Z,66.66
2022-10-15T17:00:47.779Z,67.16
2022-10-15T17:03:50.298Z,67.13
2022-10-15T17:06:52.519Z,66.94
2022-10-15T17:09:55.041Z,67.41
2022-10-15T17:12:57.223Z,67.15
2022-10-15T17:16:15.012Z,67.04
2022-10-15T17:19:21.523Z,67.17
2022-10-15T17:22:24.017Z,66.54
2022-10-15T17:25:26.382Z,66.92
2022-10-15T17:28:28.884Z,67.18
2022-10-15T17:31:31.441Z,66.93
2022-10-15T17:34:34.318Z,67.40
2022-10-15T17:37:36.538Z,67.12
2022-10-15T17:40:40.591Z,67.25
2022-10-15T17:43:43.198Z,66.85
2022-10-15T17:46:45.604Z,66.61
2022-10-15T17:49:47.809Z,66.52
2022-10-15T17:52:50.014Z,66.36
2022-10-15T17:55:52.220Z,66.52
2022-10-15T17:58:54.628Z,66.45
2022-10-15T18:02:00.968Z,66.24
2022-10-15T18:05:06.315Z,65.96
2022-10-15T18:08:10.053Z,66.43
2022-10-15T18:11:19.029Z,66.29
2022-10-15T18:14:21.789Z,66.37
2022-10-15T18:17:24.339Z,66.73
2022-10-15T18:20:26.742Z,66.79
2022-10-15T18:26:38.893Z,67.29
2022-10-15T18:29:41.080Z,67.47
2022-10-15T18:32:43.228Z,67.64
2022-10-15T18:35:52.170Z,68.32
2022-10-15T18:38:55.246Z,68.68
2022-10-15T18:41:57.465Z,68.43
2022-10-15T18:44:59.621Z,68.58
2022-10-15T18:48:01.791Z,68.64
2022-10-15T18:51:09.479Z,68.33
2022-10-15T18:54:12.368Z,68.41
2022-10-15T18:57:14.519Z,68.02
2022-10-15T19:00:16.734Z,67.87
2022-10-15T19:03:18.945Z,67.64
2022-10-15T19:06:23.924Z,67.45
2022-10-15T19:09:26.536Z,66.61
2022-10-15T19:12:28.926Z,66.64
2022-10-15T19:15:31.200Z,66.74
2022-10-15T19:18:35.230Z,66.20
2022-10-15T19:21:37.664Z,67.01
2022-10-15T19:24:39.861Z,66.67
2022-10-15T19:27:42.048Z,66.71
2022-10-15T19:30:44.681Z,66.63
2022-10-15T19:33:47.112Z,66.62
2022-10-15T19:36:50.800Z,66.65
2022-10-15T19:39:53.135Z,66.62
2022-10-15T19:42:56.472Z,66.69
2022-10-15T19:46:03.680Z,66.73
2022-10-15T19:49:08.393Z,66.49
2022-10-15T19:52:10.566Z,66.88
2022-10-15T19:55:17.049Z,67.49
2022-10-15T19:58:19.208Z,66.81
2022-10-15T20:01:21.391Z,66.83
2022-10-15T20:04:23.609Z,66.97
2022-10-15T20:07:26.045Z,67.35
2022-10-15T20:10:28.420Z,67.44
2022-10-15T20:13:30.684Z,67.50
2022-10-15T20:16:33.663Z,68.09
2022-10-15T20:19:36.367Z,68.29
2022-10-15T20:22:38.530Z,68.45
2022-10-15T20:25:42.779Z,68.50
2022-10-15T20:28:46.747Z,68.86
2022-10-15T20:31:51.236Z,68.98
2022-10-15T20:34:53.428Z,68.88
2022-10-15T20:37:55.624Z,69.07
2022-10-15T20:40:57.806Z,69.33
2022-10-15T20:44:00.271Z,69.82
2022-10-15T20:47:06.074Z,69.74
2022-10-15T20:50:18.998Z,69.87
2022-10-15T20:53:23.465Z,70.57
2022-10-15T20:56:25.776Z,70.31
2022-10-15T20:59:30.272Z,70.57
2022-10-15T21:02:32.743Z,70.84
2022-10-15T21:05:34.931Z,70.84
2022-10-15T21:08:37.090Z,70.71
2022-10-15T21:11:46.458Z,70.71
2022-10-15T21:14:48.680Z,70.58
2022-10-15T21:17:50.844Z,71.06
2022-10-15T21:20:54.745Z,70.73
2022-10-15T21:23:58.355Z,70.57
2022-10-15T21:27:01.489Z,70.27
2022-10-15T21:30:04.082Z,70.79
2022-10-15T21:33:06.711Z,70.42
2022-10-15T21:36:15.002Z,70.49
2022-10-15T21:39:17.174Z,70.80
2022-10-15T21:42:19.319Z,70.45
2022-10-15T21:45:21.481Z,70.23
2022-10-15T21:48:23.700Z,70.65
2022-10-15T21:51:29.726Z,70.50
2022-10-15T21:54:34.321Z,70.55
2022-10-15T21:57:36.552Z,70.61
2022-10-15T22:00:38.715Z,70.57
2022-10-15T22:03:41.620Z,70.48
2022-10-15T22:06:44.104Z,70.53
2022-10-15T22:09:47.607Z,70.72
2022-10-15T22:12:52.747Z,70.80
2022-10-15T22:15:55.055Z,70.76
2022-10-15T22:18:57.565Z,71.15
2022-10-15T22:21:59.729Z,70.70
2022-10-15T22:25:01.908Z,71.05
2022-10-15T22:28:04.333Z,70.87
2022-10-15T22:31:10.167Z,71.17
2022-10-15T22:34:14.424Z,71.19
2022-10-15T22:37:16.723Z,71.08
2022-10-15T22:40:18.924Z,71.39
2022-10-15T22:43:21.887Z,71.37
2022-10-15T22:46:24.525Z,71.63
2022-10-15T22:49:26.907Z,71.26
2022-10-15T22:52:29.076Z,71.37
2022-10-15T22:55:31.624Z,71.23
2022-10-15T22:58:34.972Z,71.33
2022-10-15T23:01:37.392Z,71.25
2022-10-15T23:04:39.627Z,71.56
2022-10-15T23:07:43.222Z,71.51
2022-10-15T23:10:45.667Z,71.47
2022-10-15T23:14:02.003Z,71.51
2022-10-15T23:17:04.263Z,71.51
2022-10-15T23:20:06.729Z,71.63
2022-10-15T23:23:08.907Z,72.25
2022-10-15T23:26:13.560Z,71.88
2022-10-15T23:29:18.474Z,72.19
2022-10-15T23:32:20.654Z,72.14
2022-10-15T23:35:22.923Z,72.22
2022-10-15T23:38:25.283Z,72.12
2022-10-15T23:41:29.086Z,72.25
2022-10-15T23:44:31.264Z,72.44
2022-10-15T23:47:33.525Z,72.55
2022-10-15T23:50:36.532Z,72.92
2022-10-15T23:53:39.079Z,73.24
2022-10-15T23:56:41.670Z,73.93
2022-10-15T23:59:43.863Z,74.24
